SWA2861 KOAK-KLAX
Flight info
| Callsign | SWA2861 |
|---|---|
| Flight time | 0h 59m |
| Altitude | 31000 |
| Route | SUSEY EBAYE BURGL IRNMN2 |
| Aircraft | B38M/M-SDE1FGHILORVWXY/HB1 |
Departure
| Time | 2026-04-21 13:30 |
|---|---|
| Airport | San Francisco Bay Oakland International Airport (KOAK) |
Arrival
| Time | 2026-04-21 14:29 |
|---|---|
| Airport | Los Angeles International Airport (KLAX) |
| Time | Latitude | Longitude | Altitude | Speed | Heading |
|---|---|---|---|---|---|
| 2026-04-21 13:08 | 37.71009 | -122.21242 | 11 ft | 0 kts | 128° |
| 2026-04-21 13:12 | 37.71015 | -122.21252 | 11 ft | 4 kts | 125° |
| 2026-04-21 13:13 | 37.71029 | -122.21282 | 13 ft | 4 kts | 115° |
| 2026-04-21 13:13 | 37.71039 | -122.21313 | 13 ft | 4 kts | 108° |
| 2026-04-21 13:13 | 37.71047 | -122.21345 | 13 ft | 4 kts | 114° |
| 2026-04-21 13:13 | 37.71061 | -122.21369 | 14 ft | 2 kts | 156° |
| 2026-04-21 13:14 | 37.71062 | -122.21370 | 13 ft | 0 kts | 158° |
| 2026-04-21 13:20 | 37.71062 | -122.21369 | 13 ft | 0 kts | 158° |
| 2026-04-21 13:20 | 37.71055 | -122.21367 | 14 ft | 2 kts | 167° |
| 2026-04-21 13:21 | 37.71037 | -122.21364 | 13 ft | 3 kts | 176° |
| 2026-04-21 13:21 | 37.71015 | -122.21373 | 11 ft | 3 kts | 212° |
| 2026-04-21 13:21 | 37.70993 | -122.21393 | 14 ft | 3 kts | 216° |
| 2026-04-21 13:21 | 37.70989 | -122.21397 | 12 ft | 2 kts | 216° |
| 2026-04-21 13:22 | 37.70976 | -122.21409 | 13 ft | 3 kts | 216° |
| 2026-04-21 13:22 | 37.70953 | -122.21430 | 11 ft | 5 kts | 216° |
| 2026-04-21 13:22 | 37.70921 | -122.21461 | 13 ft | 6 kts | 214° |
| 2026-04-21 13:22 | 37.70883 | -122.21498 | 12 ft | 8 kts | 226° |
| 2026-04-21 13:23 | 37.70866 | -122.21559 | 11 ft | 8 kts | 261° |
| 2026-04-21 13:23 | 37.70841 | -122.21624 | 11 ft | 8 kts | 224° |
| 2026-04-21 13:23 | 37.70834 | -122.21632 | 13 ft | 2 kts | 220° |
| 2026-04-21 13:23 | 37.70820 | -122.21646 | 11 ft | 0 kts | 220° |
| 2026-04-21 13:24 | 37.70815 | -122.21652 | 13 ft | 2 kts | 220° |
| 2026-04-21 13:24 | 37.70798 | -122.21670 | 12 ft | 4 kts | 220° |
| 2026-04-21 13:24 | 37.70771 | -122.21699 | 12 ft | 6 kts | 220° |
| 2026-04-21 13:24 | 37.70733 | -122.21738 | 12 ft | 8 kts | 217° |
| 2026-04-21 13:25 | 37.70682 | -122.21777 | 12 ft | 9 kts | 194° |
| 2026-04-21 13:25 | 37.70619 | -122.21754 | 12 ft | 10 kts | 138° |
| 2026-04-21 13:25 | 37.70572 | -122.21681 | 12 ft | 11 kts | 132° |
| 2026-04-21 13:25 | 37.70520 | -122.21607 | 12 ft | 12 kts | 129° |
| 2026-04-21 13:26 | 37.70493 | -122.21566 | 12 ft | 0 kts | 130° |
| 2026-04-21 13:26 | 37.70486 | -122.21556 | 12 ft | 3 kts | 130° |
| 2026-04-21 13:26 | 37.70469 | -122.21531 | 11 ft | 5 kts | 130° |
| 2026-04-21 13:26 | 37.70442 | -122.21491 | 11 ft | 7 kts | 130° |
| 2026-04-21 13:27 | 37.70409 | -122.21443 | 11 ft | 0 kts | 127° |
| 2026-04-21 13:27 | 37.70405 | -122.21437 | 11 ft | 2 kts | 133° |
| 2026-04-21 13:27 | 37.70374 | -122.21406 | 11 ft | 9 kts | 147° |
| 2026-04-21 13:27 | 37.70312 | -122.21376 | 12 ft | 10 kts | 159° |
| 2026-04-21 13:28 | 37.70241 | -122.21353 | 12 ft | 11 kts | 192° |
| 2026-04-21 13:28 | 37.70180 | -122.21407 | 12 ft | 12 kts | 224° |
| 2026-04-21 13:28 | 37.70162 | -122.21443 | 11 ft | 0 kts | 272° |
| 2026-04-21 13:28 | 37.70165 | -122.21450 | 11 ft | 3 kts | 300° |
| 2026-04-21 13:29 | 37.70331 | -122.21699 | 11 ft | 75 kts | 310° |
| 2026-04-21 13:29 | 37.70820 | -122.22431 | 10 ft | 141 kts | 310° |
| 2026-04-21 13:29 | 37.71530 | -122.23531 | 214 ft | 173 kts | 309° |
| 2026-04-21 13:29 | 37.72372 | -122.24803 | 377 ft | 208 kts | 312° |
| 2026-04-21 13:30 | 37.73417 | -122.26285 | 447 ft | 245 kts | 313° |
| 2026-04-21 13:30 | 37.74630 | -122.27938 | 938 ft | 266 kts | 311° |
| 2026-04-21 13:30 | 37.75023 | -122.28471 | 1221 ft | 261 kts | 311° |
| 2026-04-21 13:31 | 37.76192 | -122.29976 | 1604 ft | 250 kts | 314° |
| 2026-04-21 13:31 | 37.77620 | -122.31610 | 1718 ft | 295 kts | 317° |
| 2026-04-21 13:31 | 37.79130 | -122.33254 | 3270 ft | 266 kts | 315° |
| 2026-04-21 13:32 | 37.80402 | -122.34616 | 5491 ft | 219 kts | 318° |
| 2026-04-21 13:32 | 37.81676 | -122.35668 | 6593 ft | 220 kts | 311° |
| 2026-04-21 13:32 | 37.82425 | -122.37388 | 6889 ft | 234 kts | 269° |
| 2026-04-21 13:32 | 37.82077 | -122.39381 | 7361 ft | 240 kts | 233° |
| 2026-04-21 13:33 | 37.80794 | -122.40761 | 7969 ft | 252 kts | 205° |
| 2026-04-21 13:33 | 37.79125 | -122.41465 | 8888 ft | 254 kts | 198° |
| 2026-04-21 13:33 | 37.77424 | -122.42107 | 9830 ft | 257 kts | 192° |
| 2026-04-21 13:33 | 37.75607 | -122.42196 | 10507 ft | 272 kts | 172° |
| 2026-04-21 13:34 | 37.73826 | -122.41142 | 10939 ft | 301 kts | 144° |
| 2026-04-21 13:34 | 37.72212 | -122.39314 | 11335 ft | 320 kts | 144° |
| 2026-04-21 13:34 | 37.70451 | -122.37496 | 11812 ft | 333 kts | 145° |
| 2026-04-21 13:34 | 37.68651 | -122.35646 | 12520 ft | 338 kts | 144° |
| 2026-04-21 13:35 | 37.66829 | -122.33766 | 13412 ft | 337 kts | 146° |
| 2026-04-21 13:35 | 37.65031 | -122.31875 | 14320 ft | 337 kts | 144° |
| 2026-04-21 13:35 | 37.63200 | -122.29954 | 14930 ft | 343 kts | 145° |
| 2026-04-21 13:35 | 37.61361 | -122.28036 | 15713 ft | 345 kts | 145° |
| 2026-04-21 13:36 | 37.59500 | -122.26094 | 16465 ft | 347 kts | 145° |
| 2026-04-21 13:36 | 37.57640 | -122.24149 | 17215 ft | 349 kts | 145° |
| 2026-04-21 13:36 | 37.55764 | -122.22189 | 17947 ft | 351 kts | 146° |
| 2026-04-21 13:36 | 37.53880 | -122.20222 | 18613 ft | 353 kts | 146° |
| 2026-04-21 13:37 | 37.51984 | -122.18243 | 19226 ft | 355 kts | 146° |
| 2026-04-21 13:37 | 37.50081 | -122.16253 | 19794 ft | 357 kts | 147° |
| 2026-04-21 13:37 | 37.48183 | -122.14273 | 20386 ft | 359 kts | 147° |
| 2026-04-21 13:37 | 37.46256 | -122.12263 | 20976 ft | 361 kts | 148° |
| 2026-04-21 13:38 | 37.44319 | -122.10242 | 21577 ft | 362 kts | 148° |
| 2026-04-21 13:38 | 37.42365 | -122.08206 | 22160 ft | 365 kts | 149° |
| 2026-04-21 13:38 | 37.40406 | -122.06169 | 22702 ft | 366 kts | 149° |
| 2026-04-21 13:38 | 37.38440 | -122.04117 | 23297 ft | 368 kts | 149° |
| 2026-04-21 13:39 | 37.36464 | -122.02059 | 23755 ft | 371 kts | 150° |
| 2026-04-21 13:39 | 37.34470 | -121.99984 | 24159 ft | 373 kts | 150° |
| 2026-04-21 13:39 | 37.32463 | -121.97892 | 24552 ft | 376 kts | 150° |
| 2026-04-21 13:39 | 37.30436 | -121.95783 | 24963 ft | 379 kts | 150° |
| 2026-04-21 13:40 | 37.28398 | -121.93664 | 25372 ft | 382 kts | 150° |
| 2026-04-21 13:40 | 37.26347 | -121.91534 | 25774 ft | 384 kts | 150° |
| 2026-04-21 13:40 | 37.24281 | -121.89390 | 26177 ft | 387 kts | 150° |
| 2026-04-21 13:40 | 37.22201 | -121.87231 | 26571 ft | 389 kts | 149° |
| 2026-04-21 13:41 | 37.20134 | -121.85086 | 26947 ft | 392 kts | 149° |
| 2026-04-21 13:41 | 37.18029 | -121.82899 | 27281 ft | 395 kts | 150° |
| 2026-04-21 13:41 | 37.15902 | -121.80697 | 27638 ft | 398 kts | 150° |
| 2026-04-21 13:41 | 37.13760 | -121.78479 | 27873 ft | 402 kts | 149° |
| 2026-04-21 13:42 | 37.11585 | -121.76239 | 28139 ft | 405 kts | 149° |
| 2026-04-21 13:42 | 37.09412 | -121.73986 | 28539 ft | 407 kts | 149° |
| 2026-04-21 13:42 | 37.07218 | -121.71719 | 28889 ft | 409 kts | 149° |
| 2026-04-21 13:42 | 37.05018 | -121.69446 | 29248 ft | 411 kts | 149° |
| 2026-04-21 13:43 | 37.02799 | -121.67153 | 29551 ft | 415 kts | 149° |
| 2026-04-21 13:43 | 37.00556 | -121.64844 | 29802 ft | 419 kts | 149° |
| 2026-04-21 13:43 | 36.98337 | -121.62551 | 30182 ft | 418 kts | 149° |
| 2026-04-21 13:43 | 36.96095 | -121.60236 | 30472 ft | 419 kts | 149° |
| 2026-04-21 13:44 | 36.93835 | -121.57909 | 30809 ft | 420 kts | 149° |
| 2026-04-21 13:44 | 36.91571 | -121.55581 | 30977 ft | 421 kts | 149° |
| 2026-04-21 13:44 | 36.87063 | -121.50941 | 30931 ft | 420 kts | 149° |
| 2026-04-21 13:45 | 36.82516 | -121.46283 | 30994 ft | 424 kts | 149° |
| 2026-04-21 13:45 | 36.77962 | -121.41621 | 30997 ft | 423 kts | 149° |
| 2026-04-21 13:46 | 36.73407 | -121.36963 | 30985 ft | 423 kts | 149° |
| 2026-04-21 13:46 | 36.68851 | -121.32313 | 31002 ft | 424 kts | 150° |
| 2026-04-21 13:47 | 36.64298 | -121.27679 | 30991 ft | 425 kts | 149° |
| 2026-04-21 13:47 | 36.59709 | -121.23013 | 30953 ft | 426 kts | 149° |
| 2026-04-21 13:48 | 36.55106 | -121.18340 | 30963 ft | 427 kts | 149° |
| 2026-04-21 13:48 | 36.50491 | -121.13662 | 30984 ft | 430 kts | 149° |
| 2026-04-21 13:49 | 36.45858 | -121.08972 | 30980 ft | 429 kts | 149° |
| 2026-04-21 13:49 | 36.41506 | -121.03807 | 30988 ft | 442 kts | 139° |
| 2026-04-21 13:50 | 36.37482 | -120.98028 | 30986 ft | 442 kts | 140° |
| 2026-04-21 13:50 | 36.33462 | -120.92259 | 30969 ft | 441 kts | 139° |
| 2026-04-21 13:51 | 36.29466 | -120.86532 | 30985 ft | 441 kts | 139° |
| 2026-04-21 13:51 | 36.25439 | -120.80786 | 30990 ft | 440 kts | 140° |
| 2026-04-21 13:52 | 36.21420 | -120.75024 | 30978 ft | 443 kts | 139° |
| 2026-04-21 13:52 | 36.17383 | -120.69260 | 30975 ft | 442 kts | 140° |
| 2026-04-21 13:53 | 36.13361 | -120.63537 | 30988 ft | 440 kts | 140° |
| 2026-04-21 13:53 | 36.10132 | -120.58634 | 30941 ft | 452 kts | 132° |
| 2026-04-21 13:54 | 36.06414 | -120.52565 | 30989 ft | 435 kts | 149° |
| 2026-04-21 13:54 | 36.02028 | -120.47272 | 30990 ft | 445 kts | 141° |
| 2026-04-21 13:55 | 35.97878 | -120.41545 | 30995 ft | 446 kts | 140° |
| 2026-04-21 13:55 | 35.93778 | -120.35784 | 30972 ft | 445 kts | 139° |
| 2026-04-21 13:56 | 35.89686 | -120.30014 | 30978 ft | 448 kts | 139° |
| 2026-04-21 13:56 | 35.85251 | -120.24929 | 30982 ft | 427 kts | 156° |
| 2026-04-21 13:57 | 35.80184 | -120.21025 | 30979 ft | 429 kts | 155° |
| 2026-04-21 13:57 | 35.75094 | -120.17165 | 30965 ft | 430 kts | 156° |
| 2026-04-21 13:58 | 35.70003 | -120.13330 | 30978 ft | 432 kts | 156° |
| 2026-04-21 13:58 | 35.64967 | -120.09238 | 30998 ft | 435 kts | 151° |
| 2026-04-21 13:59 | 35.60051 | -120.04868 | 30976 ft | 435 kts | 152° |
| 2026-04-21 13:59 | 35.55105 | -120.00531 | 30965 ft | 438 kts | 152° |
| 2026-04-21 14:00 | 35.50169 | -119.96214 | 30983 ft | 438 kts | 152° |
| 2026-04-21 14:00 | 35.45207 | -119.91882 | 30977 ft | 438 kts | 152° |
| 2026-04-21 14:01 | 35.40234 | -119.87547 | 30962 ft | 439 kts | 152° |
| 2026-04-21 14:01 | 35.35243 | -119.83201 | 30988 ft | 441 kts | 152° |
| 2026-04-21 14:02 | 35.30234 | -119.78852 | 30971 ft | 441 kts | 152° |
| 2026-04-21 14:03 | 35.22732 | -119.72343 | 30937 ft | 441 kts | 152° |
| 2026-04-21 14:03 | 35.17732 | -119.68016 | 30966 ft | 445 kts | 152° |
| 2026-04-21 14:04 | 35.12705 | -119.63672 | 30976 ft | 444 kts | 152° |
| 2026-04-21 14:04 | 35.07653 | -119.59312 | 30980 ft | 444 kts | 152° |
| 2026-04-21 14:05 | 35.02592 | -119.54951 | 30972 ft | 446 kts | 152° |
| 2026-04-21 14:05 | 34.97502 | -119.50573 | 30987 ft | 448 kts | 151° |
| 2026-04-21 14:06 | 34.92403 | -119.46192 | 30986 ft | 448 kts | 152° |
| 2026-04-21 14:06 | 34.87348 | -119.41856 | 30657 ft | 445 kts | 152° |
| 2026-04-21 14:06 | 34.84804 | -119.39678 | 29654 ft | 449 kts | 151° |
| 2026-04-21 14:07 | 34.82243 | -119.37486 | 28726 ft | 450 kts | 151° |
| 2026-04-21 14:07 | 34.79690 | -119.35301 | 28092 ft | 445 kts | 151° |
| 2026-04-21 14:07 | 34.77170 | -119.33147 | 27456 ft | 440 kts | 152° |
| 2026-04-21 14:07 | 34.74674 | -119.31015 | 26818 ft | 437 kts | 152° |
| 2026-04-21 14:08 | 34.72196 | -119.28901 | 26208 ft | 433 kts | 152° |
| 2026-04-21 14:08 | 34.69738 | -119.26805 | 25589 ft | 430 kts | 152° |
| 2026-04-21 14:08 | 34.67290 | -119.24716 | 24938 ft | 427 kts | 151° |
| 2026-04-21 14:08 | 34.64897 | -119.22680 | 24359 ft | 424 kts | 152° |
| 2026-04-21 14:09 | 34.62491 | -119.20633 | 23771 ft | 420 kts | 152° |
| 2026-04-21 14:09 | 34.60098 | -119.18600 | 23091 ft | 418 kts | 152° |
| 2026-04-21 14:09 | 34.57728 | -119.16588 | 22439 ft | 415 kts | 152° |
| 2026-04-21 14:09 | 34.55378 | -119.14588 | 21882 ft | 410 kts | 152° |
| 2026-04-21 14:10 | 34.53055 | -119.12617 | 21294 ft | 405 kts | 152° |
| 2026-04-21 14:10 | 34.50754 | -119.10666 | 20752 ft | 401 kts | 152° |
| 2026-04-21 14:10 | 34.48466 | -119.08729 | 20182 ft | 399 kts | 152° |
| 2026-04-21 14:10 | 34.46200 | -119.06810 | 19635 ft | 396 kts | 152° |
| 2026-04-21 14:11 | 34.43950 | -119.04910 | 19084 ft | 392 kts | 152° |
| 2026-04-21 14:11 | 34.41718 | -119.03020 | 18563 ft | 390 kts | 152° |
| 2026-04-21 14:11 | 34.39490 | -119.01138 | 17964 ft | 389 kts | 152° |
| 2026-04-21 14:11 | 34.37275 | -118.99266 | 17391 ft | 386 kts | 152° |
| 2026-04-21 14:12 | 34.35084 | -118.97416 | 17049 ft | 378 kts | 152° |
| 2026-04-21 14:12 | 34.32956 | -118.95620 | 16779 ft | 368 kts | 152° |
| 2026-04-21 14:12 | 34.30913 | -118.93897 | 16570 ft | 355 kts | 152° |
| 2026-04-21 14:12 | 34.28959 | -118.92246 | 16453 ft | 332 kts | 153° |
| 2026-04-21 14:13 | 34.27124 | -118.90699 | 16299 ft | 312 kts | 153° |
| 2026-04-21 14:13 | 34.25385 | -118.89202 | 15847 ft | 309 kts | 151° |
| 2026-04-21 14:13 | 34.23655 | -118.87612 | 15294 ft | 314 kts | 150° |
| 2026-04-21 14:13 | 34.21906 | -118.86010 | 14777 ft | 316 kts | 150° |
| 2026-04-21 14:14 | 34.20143 | -118.84399 | 14243 ft | 320 kts | 150° |
| 2026-04-21 14:14 | 34.18360 | -118.82772 | 13662 ft | 323 kts | 150° |
| 2026-04-21 14:14 | 34.16572 | -118.81123 | 13009 ft | 322 kts | 147° |
| 2026-04-21 14:14 | 34.14936 | -118.79328 | 12616 ft | 311 kts | 145° |
| 2026-04-21 14:15 | 34.13375 | -118.77613 | 12350 ft | 295 kts | 145° |
| 2026-04-21 14:15 | 34.11876 | -118.75984 | 12090 ft | 288 kts | 145° |
| 2026-04-21 14:15 | 34.10384 | -118.74371 | 11802 ft | 287 kts | 145° |
| 2026-04-21 14:15 | 34.08897 | -118.72768 | 11504 ft | 286 kts | 145° |
| 2026-04-21 14:16 | 34.07418 | -118.71173 | 11173 ft | 285 kts | 145° |
| 2026-04-21 14:16 | 34.05892 | -118.69715 | 10943 ft | 271 kts | 157° |
| 2026-04-21 14:16 | 34.04224 | -118.68727 | 10608 ft | 265 kts | 157° |
| 2026-04-21 14:16 | 34.02829 | -118.67281 | 10374 ft | 279 kts | 129° |
| 2026-04-21 14:17 | 34.02238 | -118.65011 | 10059 ft | 296 kts | 96° |
| 2026-04-21 14:17 | 34.02306 | -118.62518 | 9767 ft | 294 kts | 96° |
| 2026-04-21 14:17 | 34.02210 | -118.60079 | 9454 ft | 290 kts | 99° |
| 2026-04-21 14:17 | 34.02056 | -118.57666 | 9131 ft | 287 kts | 100° |
| 2026-04-21 14:18 | 34.01871 | -118.55281 | 8819 ft | 285 kts | 101° |
| 2026-04-21 14:18 | 34.01671 | -118.52908 | 8493 ft | 283 kts | 101° |
| 2026-04-21 14:18 | 34.01463 | -118.50551 | 8197 ft | 282 kts | 101° |
| 2026-04-21 14:18 | 34.01249 | -118.48204 | 7862 ft | 282 kts | 101° |
| 2026-04-21 14:19 | 34.01063 | -118.45850 | 7517 ft | 284 kts | 93° |
| 2026-04-21 14:19 | 34.01369 | -118.43478 | 7136 ft | 289 kts | 79° |
| 2026-04-21 14:19 | 34.01791 | -118.41143 | 6771 ft | 286 kts | 80° |
| 2026-04-21 14:19 | 34.02200 | -118.38822 | 6421 ft | 279 kts | 80° |
| 2026-04-21 14:20 | 34.02592 | -118.36564 | 6064 ft | 271 kts | 80° |
| 2026-04-21 14:20 | 34.02864 | -118.34399 | 6051 ft | 251 kts | 85° |
| 2026-04-21 14:20 | 34.03074 | -118.32351 | 6028 ft | 243 kts | 85° |
| 2026-04-21 14:20 | 34.03284 | -118.30348 | 6014 ft | 241 kts | 85° |
| 2026-04-21 14:21 | 34.03500 | -118.28382 | 6041 ft | 229 kts | 85° |
| 2026-04-21 14:21 | 34.03704 | -118.26529 | 6003 ft | 220 kts | 85° |
| 2026-04-21 14:21 | 34.03905 | -118.24709 | 5983 ft | 217 kts | 84° |
| 2026-04-21 14:21 | 34.04103 | -118.22901 | 5994 ft | 217 kts | 85° |
| 2026-04-21 14:22 | 34.04302 | -118.21092 | 6003 ft | 218 kts | 84° |
| 2026-04-21 14:22 | 34.04502 | -118.19277 | 5991 ft | 219 kts | 84° |
| 2026-04-21 14:22 | 34.04704 | -118.17452 | 5999 ft | 220 kts | 84° |
| 2026-04-21 14:22 | 34.04749 | -118.15627 | 5956 ft | 215 kts | 107° |
| 2026-04-21 14:23 | 34.04053 | -118.14100 | 5941 ft | 206 kts | 138° |
| 2026-04-21 14:23 | 34.02899 | -118.13156 | 5989 ft | 202 kts | 163° |
| 2026-04-21 14:23 | 34.01556 | -118.12766 | 5919 ft | 197 kts | 171° |
| 2026-04-21 14:23 | 34.00211 | -118.12482 | 5535 ft | 195 kts | 184° |
| 2026-04-21 14:24 | 33.98971 | -118.12975 | 5226 ft | 184 kts | 217° |
| 2026-04-21 14:24 | 33.98186 | -118.14125 | 4922 ft | 178 kts | 243° |
| 2026-04-21 14:24 | 33.97854 | -118.15573 | 4478 ft | 181 kts | 258° |
| 2026-04-21 14:24 | 33.97651 | -118.17075 | 4078 ft | 182 kts | 259° |
| 2026-04-21 14:25 | 33.97462 | -118.18611 | 3518 ft | 191 kts | 260° |
| 2026-04-21 14:25 | 33.97279 | -118.20204 | 2874 ft | 198 kts | 261° |
| 2026-04-21 14:25 | 33.97096 | -118.21861 | 2273 ft | 200 kts | 261° |
| 2026-04-21 14:25 | 33.96925 | -118.23457 | 2127 ft | 181 kts | 261° |
| 2026-04-21 14:26 | 33.96777 | -118.24862 | 2089 ft | 164 kts | 261° |
| 2026-04-21 14:26 | 33.96638 | -118.26182 | 2109 ft | 152 kts | 261° |
| 2026-04-21 14:26 | 33.96510 | -118.27438 | 2126 ft | 149 kts | 261° |
| 2026-04-21 14:26 | 33.96383 | -118.28673 | 2097 ft | 148 kts | 261° |
| 2026-04-21 14:27 | 33.96259 | -118.29888 | 2093 ft | 148 kts | 262° |
| 2026-04-21 14:27 | 33.96127 | -118.31127 | 1885 ft | 149 kts | 261° |
| 2026-04-21 14:27 | 33.95974 | -118.32369 | 1425 ft | 152 kts | 261° |
| 2026-04-21 14:27 | 33.95847 | -118.33616 | 1082 ft | 147 kts | 263° |
| 2026-04-21 14:28 | 33.95727 | -118.34840 | 865 ft | 148 kts | 262° |
| 2026-04-21 14:28 | 33.95611 | -118.36074 | 622 ft | 148 kts | 263° |
| 2026-04-21 14:28 | 33.95508 | -118.37307 | 475 ft | 149 kts | 263° |
| 2026-04-21 14:28 | 33.95368 | -118.38540 | 320 ft | 148 kts | 262° |
| 2026-04-21 14:29 | 33.95251 | -118.39777 | 169 ft | 149 kts | 263° |
| 2026-04-21 14:29 | 33.95131 | -118.40978 | 95 ft | 134 kts | 263° |
| 2026-04-21 14:29 | 33.95025 | -118.41992 | 96 ft | 87 kts | 263° |
| 2026-04-21 14:29 | 33.94958 | -118.42335 | 97 ft | 23 kts | 242° |
| 2026-04-21 14:30 | 33.94931 | -118.42383 | 97 ft | 7 kts | 232° |
| 2026-04-21 14:30 | 33.94889 | -118.42440 | 97 ft | 12 kts | 224° |
| 2026-04-21 14:30 | 33.94814 | -118.42488 | 101 ft | 12 kts | 184° |
| 2026-04-21 14:30 | 33.94729 | -118.42483 | 100 ft | 14 kts | 173° |
| 2026-04-21 14:31 | 33.94665 | -118.42420 | 100 ft | 13 kts | 90° |
| 2026-04-21 14:31 | 33.94677 | -118.42301 | 97 ft | 16 kts | 81° |
| 2026-04-21 14:31 | 33.94686 | -118.42208 | 98 ft | 1 kts | 85° |
| 2026-04-21 14:31 | 33.94686 | -118.42207 | 98 ft | 0 kts | 85° |
| 2026-04-21 14:32 | 33.94686 | -118.42205 | 98 ft | 1 kts | 84° |
| 2026-04-21 14:32 | 33.94688 | -118.42184 | 99 ft | 4 kts | 84° |
| 2026-04-21 14:32 | 33.94691 | -118.42154 | 99 ft | 1 kts | 80° |
| 2026-04-21 14:32 | 33.94693 | -118.42137 | 97 ft | 4 kts | 82° |
| 2026-04-21 14:33 | 33.94696 | -118.42105 | 96 ft | 2 kts | 84° |
| 2026-04-21 14:33 | 33.94698 | -118.42080 | 96 ft | 5 kts | 84° |
| 2026-04-21 14:33 | 33.94703 | -118.42030 | 96 ft | 7 kts | 81° |
| 2026-04-21 14:33 | 33.94705 | -118.42019 | 98 ft | 3 kts | 81° |
| 2026-04-21 14:34 | 33.94709 | -118.41985 | 96 ft | 6 kts | 82° |
| 2026-04-21 14:34 | 33.94715 | -118.41927 | 96 ft | 9 kts | 84° |
| 2026-04-21 14:34 | 33.94723 | -118.41833 | 96 ft | 14 kts | 83° |
| 2026-04-21 14:34 | 33.94738 | -118.41703 | 96 ft | 17 kts | 81° |
| 2026-04-21 14:35 | 33.94747 | -118.41594 | 97 ft | 2 kts | 83° |
| 2026-04-21 14:35 | 33.94751 | -118.41564 | 96 ft | 5 kts | 81° |
| 2026-04-21 14:35 | 33.94755 | -118.41518 | 96 ft | 6 kts | 84° |
| 2026-04-21 14:35 | 33.94761 | -118.41455 | 99 ft | 9 kts | 81° |
| 2026-04-21 14:36 | 33.94780 | -118.41375 | 98 ft | 11 kts | 75° |
| 2026-04-21 14:36 | 33.94793 | -118.41269 | 97 ft | 15 kts | 87° |
| 2026-04-21 14:36 | 33.94809 | -118.41133 | 98 ft | 18 kts | 81° |
| 2026-04-21 14:36 | 33.94822 | -118.40993 | 97 ft | 16 kts | 84° |
| 2026-04-21 14:37 | 33.94838 | -118.40853 | 97 ft | 18 kts | 80° |
| 2026-04-21 14:37 | 33.94853 | -118.40697 | 97 ft | 20 kts | 83° |
| 2026-04-21 14:37 | 33.94866 | -118.40571 | 97 ft | 11 kts | 83° |
| 2026-04-21 14:37 | 33.94877 | -118.40468 | 97 ft | 14 kts | 83° |
| 2026-04-21 14:38 | 33.94889 | -118.40344 | 98 ft | 16 kts | 84° |
| 2026-04-21 14:38 | 33.94903 | -118.40201 | 99 ft | 18 kts | 82° |
| 2026-04-21 14:38 | 33.94888 | -118.40081 | 96 ft | 13 kts | 157° |
| 2026-04-21 14:38 | 33.94848 | -118.40048 | 96 ft | 5 kts | 115° |
| 2026-04-21 14:39 | 33.94821 | -118.40011 | 95 ft | 7 kts | 156° |
| 2026-04-21 14:39 | 33.94764 | -118.40008 | 95 ft | 9 kts | 185° |
| 2026-04-21 14:39 | 33.94721 | -118.40011 | 96 ft | 10 kts | 182° |
| 2026-04-21 14:39 | 33.94697 | -118.40017 | 96 ft | 4 kts | 219° |
| 2026-04-21 14:40 | 33.94692 | -118.40048 | 97 ft | 2 kts | 272° |
| 2026-04-21 14:40 | 33.94692 | -118.40061 | 97 ft | 0 kts | 266° |